Isle Saint George, Ohio
Current Conditions -  °F | °C
As of 8:12 PM on Sunday 21 Dec 2014 (Local Time) from KPCW Reporting Station
Clear Clear  
Wind Chill: 20°   Ceiling: Unl
Heat Index: 28°   Visibility: 10mi
Dew Point: 23°   Wind: 8mph
Humidity: 80%   Direction: 130°SE
Pressure: 30.22"   Gusts: NA
Location:  41.72°N, 82.82°W
Report Text: KPCW 220112Z AUTO 13007KT 10SM CLR M02/M05 A3022 RMK AO2 $
Loading
Personal Weather Stations






























Interactive Weather Map New forecast layout! Learn more

10-Day Weather Forecast

Advertisements
Track Severe Weather on mobile